Time;durP1;ratioP1;P1;durP2;ratioP2;P2;SDS_P1;SDS_P2;PMS_P1;PMS_P2;Temp;Humidity;BMP_temperature;BMP_pressure;BME280_temperature;BME280_humidity;BME280_pressure;Samples;Min_cycle;Max_cycle;Signal;HPM_P1;HPM_P2
2023/04/01 00:02:00;;;;;;;1.85;0.70;;;18.60;49.20;;;;;;5046402;28;20211;-82
2023/04/01 00:04:29;;;;;;;2.38;0.75;;;18.60;48.50;;;;;;5029333;28;20191;-81
2023/04/01 00:06:56;;;;;;;1.77;0.70;;;18.60;49.00;;;;;;5029265;28;20257;-81
2023/04/01 00:09:23;;;;;;;0.73;0.70;;;18.50;48.50;;;;;;5044886;28;20199;-81
2023/04/01 00:11:50;;;;;;;1.05;0.70;;;18.50;48.60;;;;;;5044526;28;20353;-81
2023/04/01 00:14:17;;;;;;;1.02;0.52;;;18.50;48.70;;;;;;5044880;28;20200;-81
2023/04/01 00:16:44;;;;;;;1.05;0.65;;;18.50;49.00;;;;;;5042338;28;20681;-81
2023/04/01 00:19:11;;;;;;;1.10;1.00;;;18.50;49.30;;;;;;5037896;28;20222;-81
2023/04/01 00:21:40;;;;;;;0.70;0.50;;;18.40;48.60;;;;;;5064863;22;20615;-79
2023/04/01 00:24:07;;;;;;;0.80;0.80;;;18.50;48.80;;;;;;5036367;28;20191;-78
2023/04/01 00:26:34;;;;;;;1.10;1.00;;;18.40;48.80;;;;;;5036391;28;20219;-78
2023/04/01 00:29:02;;;;;;;1.95;0.90;;;18.40;48.90;;;;;;5037302;28;20196;-78
2023/04/01 00:31:30;;;;;;;0.68;0.68;;;18.50;48.80;;;;;;5036308;28;20323;-78
2023/04/01 00:33:57;;;;;;;0.70;0.70;;;18.40;48.90;;;;;;5036481;28;20191;-78
2023/04/01 00:36:24;;;;;;;1.58;0.75;;;18.40;48.90;;;;;;5054164;28;20208;-78
2023/04/01 00:38:52;;;;;;;0.65;0.65;;;18.40;48.90;;;;;;5055715;28;20192;-78
2023/04/01 00:41:20;;;;;;;1.77;0.80;;;18.40;48.90;;;;;;5038638;28;20191;-78
2023/04/01 00:43:49;;;;;;;1.02;0.93;;;18.40;49.00;;;;;;5036639;28;20223;-78
2023/04/01 00:46:16;;;;;;;1.83;0.90;;;18.30;48.90;;;;;;5036182;28;20212;-78
2023/04/01 00:48:44;;;;;;;1.35;0.95;;;18.30;48.80;;;;;;5036067;28;20646;-78
2023/04/01 00:51:14;;;;;;;1.55;0.70;;;18.30;48.80;;;;;;5019788;28;20307;-78
2023/04/01 00:53:43;;;;;;;0.77;0.70;;;18.30;48.90;;;;;;5036733;28;20241;-78
2023/04/01 00:56:13;;;;;;;1.55;0.73;;;18.30;48.90;;;;;;5035877;28;20215;-78
2023/04/01 00:58:42;;;;;;;1.15;0.80;;;18.30;48.90;;;;;;5035844;28;20198;-79
2023/04/01 01:01:09;;;;;;;0.68;0.68;;;18.30;48.90;;;;;;5035842;28;20206;-79
2023/04/01 01:03:37;;;;;;;0.93;0.68;;;18.30;48.90;;;;;;5035776;28;20205;-78
2023/04/01 01:06:25;;;;;;;0.80;0.60;;;18.30;48.90;;;;;;5035628;28;20720;-78
2023/04/01 01:09:07;;;;;;;1.42;1.05;;;18.30;49.00;;;;;;5035763;28;20286;-78
2023/04/01 01:11:37;;;;;;;1.45;1.05;;;18.30;49.10;;;;;;5031564;28;20234;-77
2023/04/01 01:14:09;;;;;;;1.33;0.82;;;18.20;49.10;;;;;;5035693;28;20221;-77
2023/04/01 01:16:38;;;;;;;1.00;0.80;;;18.20;49.10;;;;;;5019168;28;20234;-78
2023/04/01 01:19:09;;;;;;;1.50;0.88;;;18.30;49.20;;;;;;5035579;28;20286;-79
2023/04/01 01:21:47;;;;;;;0.70;0.65;;;18.20;49.10;;;;;;5035783;28;20207;-78
2023/04/01 01:24:23;;;;;;;1.33;0.77;;;18.20;49.10;;;;;;5053843;28;20610;-78
2023/04/01 01:26:55;;;;;;;0.98;0.70;;;18.20;49.10;;;;;;5035924;28;20234;-78
2023/04/01 01:29:51;;;;;;;0.77;0.57;;;18.20;49.20;;;;;;5035727;28;20200;-78
2023/04/01 01:32:26;;;;;;;0.75;0.70;;;18.20;49.80;;;;;;5035523;28;20199;-79
2023/04/01 01:34:56;;;;;;;0.90;0.90;;;18.20;49.20;;;;;;5035396;28;20191;-79
2023/04/01 01:37:26;;;;;;;1.02;0.85;;;18.20;49.20;;;;;;5035647;28;20218;-79
2023/04/01 01:39:55;;;;;;;1.45;0.70;;;18.20;49.10;;;;;;5019994;28;20184;-79
2023/04/01 01:42:23;;;;;;;1.55;0.60;;;18.20;49.20;;;;;;5035366;28;20200;-79
2023/04/01 01:44:50;;;;;;;0.82;0.60;;;18.20;49.70;;;;;;5035376;28;20567;-79
2023/04/01 01:47:17;;;;;;;0.75;0.60;;;18.20;49.20;;;;;;5035270;28;20211;-79
2023/04/01 01:49:45;;;;;;;1.33;0.80;;;18.20;49.20;;;;;;5035374;28;20191;-79
2023/04/01 01:52:12;;;;;;;1.88;0.73;;;18.20;49.20;;;;;;5019493;28;20195;-79
2023/04/01 01:54:49;;;;;;;1.75;0.70;;;18.20;49.20;;;;;;5038588;28;20648;-79
2023/04/01 01:57:16;;;;;;;1.52;0.60;;;18.20;49.20;;;;;;5023712;28;20250;-79
2023/04/01 01:59:47;;;;;;;0.82;0.75;;;18.20;49.30;;;;;;5039182;28;20211;-79
2023/04/01 02:02:22;;;;;;;1.20;0.65;;;18.20;49.40;;;;;;5039453;28;20233;-79
2023/04/01 02:04:49;;;;;;;0.63;0.63;;;18.10;49.20;;;;;;5039266;28;20203;-78
2023/04/01 02:07:19;;;;;;;1.10;0.63;;;18.20;49.30;;;;;;5022696;28;20609;-78
2023/04/01 02:09:48;;;;;;;0.70;0.70;;;18.20;49.30;;;;;;5038982;28;20366;-78
2023/04/01 02:12:16;;;;;;;0.93;0.63;;;18.10;49.80;;;;;;5038928;28;20286;-78
2023/04/01 02:14:45;;;;;;;0.65;0.65;;;18.10;49.20;;;;;;5038836;28;20195;-78
2023/04/01 02:17:14;;;;;;;1.95;0.85;;;18.20;49.40;;;;;;5038670;28;20266;-78
2023/04/01 02:19:47;;;;;;;0.85;0.60;;;18.10;49.30;;;;;;5038767;28;20286;-78
2023/04/01 02:22:15;;;;;;;1.00;0.68;;;18.10;49.20;;;;;;5038562;28;20222;-78
2023/04/01 02:24:43;;;;;;;1.05;0.65;;;18.10;49.30;;;;;;5038845;28;20195;-78
2023/04/01 02:27:13;;;;;;;0.88;0.70;;;18.10;49.20;;;;;;5038964;28;20696;-78
2023/04/01 02:29:40;;;;;;;1.23;0.70;;;18.10;49.10;;;;;;5039079;28;20198;-78
2023/04/01 02:32:08;;;;;;;0.75;0.70;;;18.10;49.20;;;;;;5038761;28;20214;-78
2023/04/01 02:34:35;;;;;;;0.75;0.75;;;18.10;49.20;;;;;;5038375;28;20195;-78
2023/04/01 02:37:02;;;;;;;0.88;0.77;;;18.10;49.10;;;;;;5038228;28;20626;-78
2023/04/01 02:39:29;;;;;;;0.70;0.70;;;18.10;49.20;;;;;;5038175;28;20242;-78
2023/04/01 02:41:56;;;;;;;0.47;0.47;;;18.10;49.30;;;;;;5038544;28;20213;-78
2023/04/01 02:44:25;;;;;;;0.63;0.60;;;18.10;49.20;;;;;;5039572;28;20646;-78
2023/04/01 02:46:53;;;;;;;0.60;0.60;;;18.00;49.10;;;;;;5039976;28;20222;-78
2023/04/01 02:49:20;;;;;;;0.52;0.52;;;18.00;49.10;;;;;;5038569;28;20195;-78
2023/04/01 02:51:47;;;;;;;1.33;0.80;;;18.00;49.10;;;;;;5021902;28;20222;-78
2023/04/01 02:54:14;;;;;;;0.75;0.70;;;18.00;49.00;;;;;;5038135;28;20203;-78
2023/04/01 02:56:43;;;;;;;0.40;0.40;;;18.00;49.10;;;;;;5037997;28;20269;-79
2023/04/01 02:59:11;;;;;;;0.52;0.52;;;18.10;49.10;;;;;;5021759;28;20202;-79
2023/04/01 03:01:39;;;;;;;0.50;0.50;;;18.00;49.00;;;;;;5022864;28;20668;-79
2023/04/01 03:04:06;;;;;;;0.70;0.70;;;18.00;48.90;;;;;;5037786;28;20673;-78
2023/04/01 03:06:33;;;;;;;0.73;0.57;;;18.00;48.80;;;;;;5038294;28;20682;-78
2023/04/01 03:09:00;;;;;;;0.50;0.50;;;18.00;48.90;;;;;;5038203;28;20200;-78
2023/04/01 03:11:27;;;;;;;2.05;0.52;;;18.00;48.70;;;;;;5037891;28;20195;-78
2023/04/01 03:13:54;;;;;;;0.43;0.40;;;18.00;48.60;;;;;;5037887;28;20215;-79
2023/04/01 03:16:22;;;;;;;0.80;0.50;;;18.00;48.60;;;;;;5039388;28;20215;-79
2023/04/01 03:18:53;;;;;;;0.40;0.40;;;18.00;48.70;;;;;;5037827;28;20219;-79
2023/04/01 03:21:22;;;;;;;0.80;0.40;;;18.00;48.70;;;;;;5038369;28;20776;-79
2023/04/01 03:23:50;;;;;;;0.73;0.52;;;18.00;48.80;;;;;;5038085;28;20195;-78
2023/04/01 03:26:17;;;;;;;0.52;0.50;;;18.10;48.80;;;;;;5037406;28;20226;-78
2023/04/01 03:28:44;;;;;;;0.52;0.52;;;18.00;48.70;;;;;;5037550;28;20184;-79
2023/04/01 03:31:12;;;;;;;0.80;0.47;;;18.00;48.70;;;;;;5037478;28;20575;-79
2023/04/01 03:33:45;;;;;;;0.77;0.52;;;18.00;48.80;;;;;;5038144;28;20187;-79
2023/04/01 03:36:14;;;;;;;1.20;0.75;;;18.00;48.80;;;;;;5021178;28;20312;-78
2023/04/01 03:38:42;;;;;;;0.50;0.50;;;18.00;48.60;;;;;;5037269;28;20246;-78
2023/04/01 03:41:12;;;;;;;0.57;0.57;;;18.10;49.20;;;;;;5038043;28;20286;-78
2023/04/01 03:43:39;;;;;;;0.47;0.47;;;18.10;49.00;;;;;;5038165;28;20180;-78
2023/04/01 03:46:06;;;;;;;1.35;0.45;;;18.10;48.70;;;;;;5037375;28;20215;-78
2023/04/01 03:48:33;;;;;;;0.40;0.40;;;18.10;48.70;;;;;;5037262;28;20374;-78
2023/04/01 03:51:01;;;;;;;0.55;0.52;;;18.20;48.80;;;;;;5037357;28;20207;-78
2023/04/01 03:53:30;;;;;;;0.40;0.40;;;18.20;48.80;;;;;;5037113;28;20199;-78
2023/04/01 03:55:59;;;;;;;0.70;0.50;;;18.20;48.80;;;;;;5037367;28;20285;-79
2023/04/01 03:58:27;;;;;;;0.93;0.70;;;18.20;48.80;;;;;;5036377;28;20215;-79
2023/04/01 04:00:54;;;;;;;0.73;0.70;;;18.20;48.80;;;;;;5037229;28;20286;-79
2023/04/01 04:03:22;;;;;;;1.20;0.57;;;18.20;48.60;;;;;;5037323;28;20255;-79
2023/04/01 04:05:50;;;;;;;0.50;0.50;;;18.20;48.50;;;;;;5037614;28;20202;-79
2023/04/01 04:08:21;;;;;;;0.30;0.30;;;18.20;48.40;;;;;;5038669;28;20187;-78
2023/04/01 04:10:55;;;;;;;0.50;0.50;;;18.20;48.60;;;;;;5037009;28;20680;-78
2023/04/01 04:13:22;;;;;;;0.55;0.40;;;18.20;48.30;;;;;;5037119;28;20206;-78
2023/04/01 04:15:57;;;;;;;0.90;0.50;;;18.20;48.10;;;;;;5036523;28;20317;-78
2023/04/01 04:18:24;;;;;;;0.45;0.45;;;18.20;48.30;;;;;;5036831;28;20225;-78
2023/04/01 04:20:51;;;;;;;0.55;0.55;;;18.20;48.20;;;;;;5036577;28;20257;-78
2023/04/01 04:23:18;;;;;;;0.75;0.60;;;18.20;48.10;;;;;;5021502;28;20241;-79
2023/04/01 04:25:56;;;;;;;0.68;0.57;;;18.20;48.10;;;;;;5037496;28;20289;-78
2023/04/01 04:28:23;;;;;;;0.70;0.50;;;18.20;48.10;;;;;;5036562;28;20201;-78
2023/04/01 04:30:50;;;;;;;0.45;0.40;;;18.20;47.90;;;;;;5036846;28;20226;-78
2023/04/01 04:33:18;;;;;;;0.35;0.32;;;18.20;48.10;;;;;;5036460;28;20742;-79
2023/04/01 04:35:46;;;;;;;0.43;0.43;;;18.20;47.90;;;;;;5037782;28;20333;-82
2023/04/01 04:38:14;;;;;;;0.65;0.50;;;18.20;48.00;;;;;;5021560;28;20216;-80
2023/04/01 04:40:41;;;;;;;0.47;0.47;;;18.20;48.10;;;;;;5037261;28;20199;-80
2023/04/01 04:43:11;;;;;;;0.47;0.43;;;18.20;48.20;;;;;;5036928;28;20219;-80
2023/04/01 04:45:38;;;;;;;1.08;0.60;;;18.20;48.00;;;;;;5036691;28;20226;-80
2023/04/01 04:48:07;;;;;;;1.13;0.60;;;18.20;48.20;;;;;;5036616;28;20763;-81
2023/04/01 04:50:35;;;;;;;1.08;0.77;;;18.20;48.40;;;;;;5020979;28;20215;-81
2023/04/01 04:53:02;;;;;;;1.73;0.55;;;18.20;48.20;;;;;;5021583;28;20203;-81
2023/04/01 04:55:31;;;;;;;0.50;0.50;;;18.20;48.50;;;;;;5040796;28;20203;-82
2023/04/01 04:58:20;;;;;;;0.47;0.45;;;18.20;48.40;;;;;;5050594;28;20302;-81
2023/04/01 05:00:48;;;;;;;0.50;0.50;;;18.20;48.50;;;;;;5045376;28;20282;-81
2023/04/01 05:03:26;;;;;;;3.50;0.60;;;18.20;48.50;;;;;;5043051;28;20233;-82
2023/04/01 05:05:54;;;;;;;0.38;0.38;;;18.20;48.60;;;;;;5041488;28;20226;-81
2023/04/01 05:08:21;;;;;;;0.70;0.50;;;18.20;48.50;;;;;;5039469;28;20200;-81
2023/04/01 05:10:48;;;;;;;1.80;0.70;;;18.20;48.70;;;;;;5036922;28;20199;-81
2023/04/01 05:13:16;;;;;;;0.63;0.50;;;18.20;48.90;;;;;;5037505;28;20282;-80
2023/04/01 05:15:48;;;;;;;1.00;0.70;;;18.20;48.60;;;;;;5037751;28;20293;-79
2023/04/01 05:18:16;;;;;;;0.55;0.55;;;18.20;48.80;;;;;;5037756;28;20222;-79
2023/04/01 05:20:47;;;;;;;0.68;0.57;;;18.20;49.20;;;;;;5020202;28;20280;-80
2023/04/01 05:23:15;;;;;;;0.50;0.50;;;18.20;48.80;;;;;;5038192;28;20195;-80
2023/04/01 05:25:42;;;;;;;0.90;0.60;;;18.20;48.80;;;;;;5038073;28;20196;-80
2023/04/01 05:28:09;;;;;;;0.40;0.40;;;18.20;48.80;;;;;;5044836;28;20701;-80
2023/04/01 05:30:37;;;;;;;0.60;0.60;;;18.20;48.80;;;;;;5025394;28;20195;-80
2023/04/01 05:33:27;;;;;;;0.73;0.60;;;18.20;48.70;;;;;;5044461;28;20178;-80
2023/04/01 05:35:54;;;;;;;0.50;0.50;;;18.20;48.80;;;;;;5041151;28;20203;-80
2023/04/01 05:38:21;;;;;;;0.80;0.50;;;18.20;48.80;;;;;;5040683;28;20214;-80
2023/04/01 05:40:48;;;;;;;0.95;0.50;;;18.20;48.80;;;;;;5043472;28;20206;-80
2023/04/01 05:43:18;;;;;;;1.02;0.70;;;18.20;48.50;;;;;;5044075;28;20278;-80
2023/04/01 05:45:47;;;;;;;0.45;0.45;;;18.20;48.40;;;;;;5041473;28;20257;-82
2023/04/01 05:48:15;;;;;;;2.17;0.70;;;18.20;48.40;;;;;;5058582;28;20196;-82
2023/04/01 05:50:43;;;;;;;0.90;0.90;;;18.30;48.40;;;;;;5024273;28;20295;-82
2023/04/01 05:53:11;;;;;;;1.55;0.80;;;18.30;48.20;;;;;;5039973;28;20191;-82
2023/04/01 05:55:42;;;;;;;2.88;1.40;;;18.30;48.80;;;;;;5043111;28;20282;-82
2023/04/01 05:58:09;;;;;;;4.65;1.30;;;18.30;48.40;;;;;;5041932;28;20273;-82
2023/04/01 06:00:39;;;;;;;5.32;1.40;;;18.40;49.00;;;;;;5041038;28;20202;-82
2023/04/01 06:03:08;;;;;;;2.53;1.17;;;18.30;48.20;;;;;;5040097;28;20278;-82
2023/04/01 06:05:39;;;;;;;1.65;1.10;;;18.40;48.20;;;;;;5039790;28;20261;-82
2023/04/01 06:08:11;;;;;;;1.50;1.05;;;18.50;48.10;;;;;;5039749;28;20221;-82
2023/04/01 06:10:44;;;;;;;1.52;0.98;;;18.50;48.10;;;;;;5039806;28;20222;-83
2023/04/01 06:13:13;;;;;;;2.08;1.10;;;18.60;47.90;;;;;;5039939;28;20286;-83
2023/04/01 06:15:41;;;;;;;1.65;0.88;;;18.60;47.70;;;;;;5039074;28;20214;-82
2023/04/01 06:18:22;;;;;;;1.83;1.00;;;18.70;47.60;;;;;;5040039;28;20212;-82
2023/04/01 06:20:51;;;;;;;2.45;0.80;;;18.80;47.60;;;;;;5052699;22;20250;-85
2023/04/01 06:23:47;;;;;;;1.88;0.82;;;18.90;47.00;;;;;;5020671;28;20200;-86
2023/04/01 06:26:24;;;;;;;2.30;1.00;;;19.00;47.20;;;;;;5036672;28;20714;-86
2023/04/01 06:29:05;;;;;;;1.63;0.85;;;19.00;46.90;;;;;;5037122;28;20206;-86
2023/04/01 06:31:52;;;;;;;1.50;0.68;;;19.20;46.90;;;;;;5036789;28;20200;-86
2023/04/01 06:34:42;;;;;;;2.47;0.90;;;19.20;46.50;;;;;;5037373;28;20188;-85
2023/04/01 06:37:23;;;;;;;1.65;0.88;;;19.30;46.50;;;;;;5036273;28;20587;-86
2023/04/01 06:40:09;;;;;;;1.75;0.90;;;19.20;46.40;;;;;;5036336;28;20215;-85
2023/04/01 06:42:46;;;;;;;1.20;0.90;;;19.30;46.30;;;;;;5037661;28;20208;-86
2023/04/01 06:45:38;;;;;;;1.90;1.00;;;19.20;46.40;;;;;;5033423;28;20696;-86
2023/04/01 06:48:37;;;;;;;1.90;1.05;;;19.20;46.30;;;;;;5037278;28;20187;-85
2023/04/01 06:51:35;;;;;;;1.48;0.82;;;19.20;46.40;;;;;;5021106;28;20195;-85
2023/04/01 06:54:31;;;;;;;1.40;1.00;;;19.20;46.30;;;;;;5021158;28;20282;-85
2023/04/01 06:57:23;;;;;;;1.10;0.88;;;19.20;46.60;;;;;;5037184;28;20301;-85
2023/04/01 06:59:51;;;;;;;1.25;1.00;;;19.20;46.50;;;;;;5036931;28;20222;-85
2023/04/01 07:02:24;;;;;;;1.13;0.98;;;19.20;46.20;;;;;;5035795;28;20242;-85
2023/04/01 07:04:52;;;;;;;2.17;1.10;;;19.20;46.80;;;;;;5036247;28;20198;-85
2023/04/01 07:07:22;;;;;;;2.33;1.00;;;19.10;47.20;;;;;;5035998;28;20216;-85
2023/04/01 07:09:58;;;;;;;1.85;1.05;;;19.10;46.50;;;;;;5035880;28;20203;-86
2023/04/01 07:12:50;;;;;;;4.10;1.38;;;19.10;46.40;;;;;;5036892;28;20200;-86
2023/04/01 07:15:57;;;;;;;4.45;1.55;;;19.10;46.60;;;;;;5029179;28;20192;-86
2023/04/01 07:18:31;;;;;;;2.58;1.40;;;19.20;47.20;;;;;;5035458;28;20216;-86
2023/04/01 07:20:58;;;;;;;2.38;1.20;;;19.20;46.80;;;;;;5035388;28;20298;-85
2023/04/01 07:23:27;;;;;;;4.57;1.60;;;19.10;46.70;;;;;;5034985;28;20197;-85
2023/04/01 07:26:16;;;;;;;2.40;1.20;;;19.20;47.00;;;;;;5035405;28;20266;-86
2023/04/01 07:29:00;;;;;;;2.83;1.40;;;19.20;46.70;;;;;;5036426;28;20180;-85
2023/04/01 07:31:55;;;;;;;2.80;1.17;;;19.20;46.60;;;;;;5034880;28;20270;-86
2023/04/01 07:34:25;;;;;;;3.40;1.30;;;19.30;46.70;;;;;;5018485;28;20601;-86
2023/04/01 07:36:55;;;;;;;2.25;1.05;;;19.20;46.80;;;;;;5035368;28;20220;-86
2023/04/01 07:39:29;;;;;;;2.50;1.20;;;19.30;46.60;;;;;;5035002;28;20216;-86
2023/04/01 07:42:07;;;;;;;2.35;1.15;;;19.30;46.60;;;;;;5034742;28;20204;-86
2023/04/01 07:44:39;;;;;;;1.45;0.95;;;19.30;51.10;;;;;;5034506;28;20188;-86
2023/04/01 07:47:16;;;;;;;1.85;0.95;;;19.30;50.80;;;;;;5034349;28;20220;-85
2023/04/01 07:49:49;;;;;;;2.60;1.25;;;19.30;50.50;;;;;;5035168;28;20212;-85
2023/04/01 07:52:19;;;;;;;1.85;0.98;;;19.30;50.20;;;;;;5034392;28;20200;-85
2023/04/01 07:54:52;;;;;;;1.85;1.10;;;19.30;50.00;;;;;;5034426;28;20196;-85
2023/04/01 07:57:20;;;;;;;1.80;1.00;;;19.30;50.00;;;;;;5035029;28;20262;-85
2023/04/01 07:59:59;;;;;;;2.30;1.20;;;19.40;49.80;;;;;;5035811;28;20689;-85
2023/04/01 08:02:49;;;;;;;2.55;1.13;;;19.30;49.70;;;;;;5036286;28;20212;-86
2023/04/01 08:05:21;;;;;;;2.10;1.30;;;19.30;49.40;;;;;;5019681;28;20737;-86
2023/04/01 08:07:52;;;;;;;2.13;1.10;;;19.40;49.60;;;;;;5038155;28;20246;-86
2023/04/01 08:10:41;;;;;;;1.88;1.10;;;19.40;49.20;;;;;;5039740;28;20183;-85
2023/04/01 08:13:32;;;;;;;1.90;0.95;;;19.40;48.80;;;;;;5035674;28;20188;-85
2023/04/01 08:16:14;;;;;;;2.35;1.00;;;19.40;48.30;;;;;;5035916;28;20216;-86
2023/04/01 08:18:55;;;;;;;1.83;1.27;;;19.50;48.10;;;;;;5034331;28;20212;-86
2023/04/01 08:21:24;;;;;;;2.20;1.02;;;19.50;48.10;;;;;;5034596;28;20701;-86
2023/04/01 08:23:54;;;;;;;1.65;0.90;;;19.60;47.40;;;;;;5035782;28;20206;-86
2023/04/01 08:26:29;;;;;;;1.83;1.00;;;19.70;47.30;;;;;;5035600;28;20293;-86
2023/04/01 08:28:59;;;;;;;1.45;0.85;;;19.80;47.10;;;;;;5035167;28;20274;-86
2023/04/01 08:31:31;;;;;;;1.13;0.82;;;19.80;46.60;;;;;;5035440;28;20721;-86
2023/04/01 08:33:59;;;;;;;1.13;0.85;;;19.90;46.60;;;;;;5036196;28;20736;-86
2023/04/01 08:36:29;;;;;;;1.88;1.10;;;19.90;46.70;;;;;;5048799;28;20236;-86
2023/04/01 08:39:25;;;;;;;2.05;1.02;;;20.00;46.50;;;;;;5036339;28;20244;-86
2023/04/01 08:42:07;;;;;;;1.80;1.00;;;20.00;46.30;;;;;;5036269;28;20202;-86
2023/04/01 08:45:00;;;;;;;1.38;0.95;;;20.10;46.60;;;;;;5038826;28;20185;-86
2023/04/01 08:47:55;;;;;;;1.98;1.00;;;20.10;46.30;;;;;;5011949;28;20244;-86
2023/04/01 08:50:51;;;;;;;1.10;0.90;;;20.10;46.80;;;;;;5039917;28;20647;-85
2023/04/01 08:53:42;;;;;;;1.65;1.10;;;20.10;46.20;;;;;;5039112;28;20192;-85
2023/04/01 08:56:15;;;;;;;2.25;0.98;;;20.00;46.30;;;;;;5036470;28;20713;-86
2023/04/01 08:59:05;;;;;;;1.45;1.00;;;19.90;46.50;;;;;;5037147;28;20195;-85
2023/04/01 09:01:58;;;;;;;1.30;0.70;;;19.90;46.60;;;;;;5035740;28;20188;-86
2023/04/01 09:04:58;;;;;;;1.40;1.10;;;19.80;46.40;;;;;;5034589;28;20758;-86
2023/04/01 09:07:34;;;;;;;1.45;1.00;;;19.80;46.60;;;;;;5034777;28;20220;-86
2023/04/01 09:10:27;;;;;;;1.13;0.80;;;19.70;46.60;;;;;;5034621;28;20210;-86
2023/04/01 09:13:08;;;;;;;2.47;1.20;;;19.70;46.80;;;;;;5034548;28;20191;-86
2023/04/01 09:15:58;;;;;;;1.63;1.00;;;19.80;46.70;;;;;;5035206;28;20215;-86
2023/04/01 09:18:57;;;;;;;1.90;1.00;;;19.70;46.80;;;;;;5020487;28;20226;-86
2023/04/01 09:22:01;;;;;;;1.40;0.90;;;19.70;46.60;;;;;;5034625;28;20211;-86
2023/04/01 09:24:39;;;;;;;1.15;1.00;;;19.70;46.60;;;;;;5031243;28;20219;-86
2023/04/01 09:27:10;;;;;;;1.20;0.70;;;19.70;46.70;;;;;;5033363;28;20265;-85
2023/04/01 09:30:15;;;;;;;0.95;0.77;;;19.70;46.70;;;;;;5033125;28;20203;-86
2023/04/01 09:33:13;;;;;;;1.75;0.98;;;19.70;46.80;;;;;;5032817;28;20646;-86
2023/04/01 09:35:43;;;;;;;2.05;0.82;;;19.70;47.00;;;;;;5017212;28;20547;-86
2023/04/01 09:38:21;;;;;;;1.30;0.75;;;19.70;46.80;;;;;;5032862;28;20196;-86
2023/04/01 09:40:57;;;;;;;1.27;0.88;;;19.70;46.60;;;;;;5032831;28;20208;-86
2023/04/01 09:43:46;;;;;;;1.40;1.00;;;19.70;46.60;;;;;;5033148;28;20662;-86
2023/04/01 09:46:24;;;;;;;0.70;0.70;;;19.80;46.60;;;;;;5033455;28;20212;-85
2023/04/01 09:49:12;;;;;;;0.85;0.80;;;19.80;46.50;;;;;;5034032;28;20195;-85
2023/04/01 09:51:41;;;;;;;2.28;0.75;;;19.80;46.60;;;;;;5035065;28;20192;-86
2023/04/01 09:54:24;;;;;;;0.95;0.65;;;19.90;46.60;;;;;;5035075;28;20659;-86
2023/04/01 09:57:18;;;;;;;1.20;0.95;;;19.90;46.20;;;;;;5033392;28;20220;-86
2023/04/01 10:00:20;;;;;;;0.80;0.80;;;19.90;46.50;;;;;;5032975;28;20238;-86
2023/04/01 10:03:18;;;;;;;1.30;0.88;;;20.00;46.00;;;;;;5032619;28;20204;-85
2023/04/01 10:06:18;;;;;;;0.60;0.60;;;20.00;46.20;;;;;;5032734;28;20681;-87
2023/04/01 10:09:25;;;;;;;0.57;0.57;;;20.00;45.80;;;;;;5033596;28;20193;-86
2023/04/01 10:12:14;;;;;;;0.93;0.70;;;20.00;45.90;;;;;;4983378;28;20250;-86
2023/04/01 10:15:10;;;;;;;0.77;0.70;;;20.00;45.90;;;;;;5035385;28;20689;-86
2023/04/01 10:18:04;;;;;;;0.77;0.77;;;20.00;45.90;;;;;;5039053;28;20216;-86
2023/04/01 10:21:00;;;;;;;0.70;0.70;;;20.10;45.90;;;;;;5037210;28;20244;-86
2023/04/01 10:23:44;;;;;;;1.10;0.77;;;20.10;45.90;;;;;;5037672;28;20217;-86
2023/04/01 10:26:45;;;;;;;1.38;0.80;;;20.10;45.90;;;;;;5036679;28;20250;-86
2023/04/01 10:30:06;;;;;;;0.70;0.68;;;20.10;45.90;;;;;;5038823;28;20192;-86
2023/04/01 10:32:57;;;;;;;0.90;0.70;;;20.10;45.90;;;;;;5016916;28;20545;-85
2023/04/01 10:35:52;;;;;;;0.63;0.63;;;20.10;45.80;;;;;;5038147;28;20640;-86
2023/04/01 10:39:02;;;;;;;1.00;0.60;;;20.10;46.10;;;;;;5038304;28;20208;-86
2023/04/01 10:42:02;;;;;;;0.57;0.57;;;20.10;45.90;;;;;;4990393;28;20246;-86
2023/04/01 10:45:38;;;;;;;0.70;0.60;;;20.20;45.90;;;;;;5002294;28;20193;-86
2023/04/01 10:48:16;;;;;;;0.70;0.70;;;20.20;45.90;;;;;;4960369;28;20218;-86
2023/04/01 10:51:13;;;;;;;0.55;0.43;;;20.30;45.70;;;;;;5022817;28;20194;-86
2023/04/01 10:54:10;;;;;;;0.43;0.40;;;20.40;45.80;;;;;;5036504;28;20184;-86
2023/04/01 10:56:57;;;;;;;0.77;0.43;;;20.40;45.40;;;;;;5035753;28;20223;-86
2023/04/01 11:00:27;;;;;;;0.80;0.60;;;20.40;45.50;;;;;;5014930;28;20239;-86
2023/04/01 11:04:02;;;;;;;0.70;0.50;;;20.40;45.50;;;;;;5008794;28;20295;-86
2023/04/01 11:07:18;;;;;;;0.50;0.47;;;20.50;45.50;;;;;;5036597;28;20653;-86
2023/04/01 11:10:12;;;;;;;0.50;0.50;;;20.50;45.50;;;;;;5035259;28;20604;-86
2023/04/01 11:13:10;;;;;;;0.95;0.80;;;20.50;45.20;;;;;;5035434;28;20196;-86
2023/04/01 11:16:11;;;;;;;1.10;0.90;;;20.40;45.20;;;;;;5035966;28;20696;-86
2023/04/01 11:19:04;;;;;;;0.77;0.65;;;20.40;45.20;;;;;;5039465;28;20630;-86
2023/04/01 11:21:58;;;;;;;0.75;0.60;;;20.50;45.20;;;;;;5036701;28;20208;-86
2023/04/01 11:24:57;;;;;;;1.50;0.68;;;20.50;45.40;;;;;;5040910;28;20279;-84
2023/04/01 11:27:53;;;;;;;1.02;0.73;;;20.40;45.30;;;;;;5038885;28;20274;-85
2023/04/01 11:30:51;;;;;;;0.40;0.40;;;20.40;45.30;;;;;;5036333;28;20552;-86
2023/04/01 11:33:20;;;;;;;0.75;0.70;;;20.50;45.40;;;;;;5036076;28;20231;-86
2023/04/01 11:35:58;;;;;;;0.98;0.55;;;20.50;45.40;;;;;;5034751;28;20200;-87
2023/04/01 11:38:34;;;;;;;0.47;0.47;;;20.50;45.30;;;;;;5035454;28;20219;-86
2023/04/01 11:41:25;;;;;;;0.50;0.50;;;20.50;45.20;;;;;;5037071;28;20207;-86
2023/04/01 11:44:20;;;;;;;0.50;0.50;;;20.40;45.20;;;;;;5035813;28;20196;-86
2023/04/01 11:47:06;;;;;;;1.65;0.80;;;20.50;45.10;;;;;;5034704;28;20338;-86
2023/04/01 11:49:40;;;;;;;0.73;0.57;;;20.60;45.40;;;;;;5037628;28;20650;-86
2023/04/01 11:52:35;;;;;;;0.70;0.60;;;20.60;45.30;;;;;;5035212;28;20326;-84
2023/04/01 11:55:10;;;;;;;0.85;0.60;;;20.60;44.90;;;;;;5034959;28;20196;-83
2023/04/01 11:58:00;;;;;;;0.43;0.40;;;20.60;45.10;;;;;;5035040;28;20226;-84
2023/04/01 12:00:52;;;;;;;2.20;0.52;;;20.60;44.60;;;;;;5035457;28;20212;-84
2023/04/01 12:03:30;;;;;;;0.55;0.50;;;20.60;44.70;;;;;;5034532;28;20232;-84
2023/04/01 12:06:01;;;;;;;0.65;0.57;;;20.70;44.90;;;;;;5034325;28;20203;-83
2023/04/01 12:08:36;;;;;;;1.85;0.60;;;20.70;45.20;;;;;;5034949;28;20196;-83
2023/04/01 12:11:10;;;;;;;0.77;0.70;;;20.60;45.20;;;;;;5034813;28;20210;-84
2023/04/01 12:13:41;;;;;;;2.30;0.85;;;20.60;45.20;;;;;;5034653;28;20198;-83
2023/04/01 12:16:41;;;;;;;0.60;0.60;;;20.60;45.40;;;;;;5034543;28;20770;-84
2023/04/01 12:19:12;;;;;;;0.70;0.60;;;20.70;45.70;;;;;;5034400;28;20377;-84
2023/04/01 12:21:43;;;;;;;0.70;0.50;;;20.70;45.60;;;;;;5035131;28;20655;-84
2023/04/01 12:24:35;;;;;;;2.65;0.80;;;20.70;45.60;;;;;;5018596;28;20196;-84
2023/04/01 12:27:15;;;;;;;1.25;0.60;;;20.60;45.60;;;;;;5034622;28;20298;-84
2023/04/01 12:30:18;;;;;;;0.60;0.60;;;20.60;46.00;;;;;;5035863;28;20191;-84
2023/04/01 12:32:47;;;;;;;0.82;0.55;;;20.60;45.90;;;;;;5031748;28;20195;-84
2023/04/01 12:35:24;;;;;;;0.57;0.57;;;20.60;45.80;;;;;;5034776;28;20200;-84
2023/04/01 12:37:59;;;;;;;0.73;0.60;;;20.60;45.80;;;;;;5034454;28;20223;-84
2023/04/01 12:40:41;;;;;;;0.70;0.60;;;20.60;45.80;;;;;;5034817;28;20227;-85
2023/04/01 12:43:50;;;;;;;2.38;0.77;;;20.60;46.00;;;;;;5034948;28;20239;-84
2023/04/01 12:46:22;;;;;;;0.63;0.60;;;20.60;46.20;;;;;;4989441;28;20216;-84
2023/04/01 12:49:08;;;;;;;1.55;0.70;;;20.70;46.20;;;;;;5034679;28;20212;-84
2023/04/01 12:51:41;;;;;;;0.60;0.60;;;20.70;45.80;;;;;;5034023;28;20191;-84
2023/04/01 12:54:47;;;;;;;0.88;0.50;;;20.80;46.20;;;;;;5035557;28;20196;-84
2023/04/01 12:57:44;;;;;;;1.20;0.60;;;20.80;46.30;;;;;;5034702;28;20223;-85
2023/04/01 13:00:21;;;;;;;0.60;0.60;;;20.80;45.80;;;;;;5034327;28;20318;-84
2023/04/01 13:02:58;;;;;;;0.63;0.63;;;20.80;46.00;;;;;;5035243;28;20656;-84
2023/04/01 13:05:40;;;;;;;0.70;0.60;;;20.80;46.80;;;;;;5034704;28;20630;-85
2023/04/01 13:08:24;;;;;;;0.70;0.70;;;20.80;46.80;;;;;;5034749;28;20220;-85
2023/04/01 13:11:03;;;;;;;0.63;0.63;;;20.90;46.50;;;;;;5035022;28;20199;-85
2023/04/01 13:14:09;;;;;;;0.50;0.50;;;21.00;46.60;;;;;;5034234;28;20224;-85
2023/04/01 13:16:37;;;;;;;1.67;0.47;;;21.00;46.50;;;;;;5035537;28;20314;-85
2023/04/01 13:19:07;;;;;;;2.17;0.40;;;21.10;46.50;;;;;;5033895;28;20294;-84
2023/04/01 13:21:40;;;;;;;1.77;0.50;;;21.10;46.00;;;;;;5034983;28;20239;-85
2023/04/01 13:24:11;;;;;;;0.43;0.43;;;21.10;45.80;;;;;;5033940;28;20223;-85
2023/04/01 13:26:43;;;;;;;1.83;0.65;;;21.20;46.10;;;;;;5034880;28;20224;-85
2023/04/01 13:29:12;;;;;;;0.52;0.40;;;21.10;45.50;;;;;;5017818;28;20227;-85
2023/04/01 13:31:46;;;;;;;0.60;0.50;;;21.20;45.60;;;;;;5034822;28;20247;-84
2023/04/01 13:34:21;;;;;;;0.40;0.40;;;21.20;45.40;;;;;;5033586;28;20199;-84
2023/04/01 13:36:55;;;;;;;0.70;0.40;;;21.20;45.00;;;;;;5033728;28;20225;-84
2023/04/01 13:39:31;;;;;;;1.05;0.35;;;21.20;44.90;;;;;;5033303;28;20188;-84
2023/04/01 13:42:12;;;;;;;0.30;0.30;;;21.20;45.00;;;;;;5033548;28;20636;-83